Terminal Aerodrome Forecast
Issued by NWS Pocatello, ID

Home | Current Version | Previous Version | Text Only | Print | Product List | Glossary On
Versions: 1 2 3 4 5 6 7 8 9 10 11 12 13 14
000
FTUS45 KPIH 071720
TAFPIH
TAF
KPIH 071720Z 0718/0818 31008KT P6SM VCTS FEW050CB SCT180
     FM080000 31015KT P6SM VCTS FEW080CB SCT180
     FM080300 04007KT P6SM VCSH SCT100 BKN140
     FM081200 02007KT P6SM VCSH BKN100 BKN130=

USA.gov is the U.S. government's official web portal to all federal, state and local government web resources and services.